METAR AND TAF INFORMATION
METAR FOR UGTB
ADDS - METARS form results

(0413 UTC 26 August 2019)
Data provider http://aviationweather.gov/metar/data/
 
METAR text: UGTB 260400Z 30012KT CAVOK 23/17 Q1019 NOSIG
Conditions at: UGTB (TBILISI/NOVO-AL , GE) observed 0400 UTC 26 August 2019
Temperature: 23.0°C (73°F)
Dewpoint: 17.0°C (63°F) [RH = 69%]
Pressure (altimeter): 30.09 inches Hg (1019.0 mb)
Winds: from the WNW (300 degrees) at 14 MPH (12 knots; 6.2 m/s)
Visibility: 6 or more miles (10+ km)
Ceiling: ceiling and visibility are OK
Clouds: unknown
Weather: no significant weather observed at this time

METAR text: UGTB 260330Z 31011KT CAVOK 22/17 Q1019 NOSIG
Conditions at: UGTB (TBILISI/NOVO-AL , GE) observed 0330 UTC 26 August 2019
Temperature: 22.0°C (72°F)
Dewpoint: 17.0°C (63°F) [RH = 73%]
Pressure (altimeter): 30.09 inches Hg (1019.0 mb)
Winds: from the NW (310 degrees) at 13 MPH (11 knots; 5.7 m/s)
Visibility: 6 or more miles (10+ km)
Ceiling: ceiling and visibility are OK
Clouds: unknown
Weather: no significant weather observed at this time

Forecast for: UGTB (TBILISI/NOVO-AL , GE)
Text: TAF UGTB 252300Z 2600/2624 32017KT CAVOK TX33/2612Z TN21/2603Z
Forecast period: 0000 UTC 26 August 2019 to 0000 UTC 27 August 2019
Forecast type: FROM: standard forecast or significant change
Winds: from the NW (320 degrees) at 20 MPH (17 knots; 8.7 m/s)
Visibility: 6 or more miles 10+ km)
Ceiling: unknown
Clouds: missing
Weather: no significant weather forecast for this period
Text: PROB40
Forecast period: 1700 to 2300 UTC 26 August 2019
Forecast type: TEMPORARY: The following changes expected for less than half the time period
Winds: variable direction winds at 26 MPH (23 knots; 11.8 m/s)
Visibility: missing
Ceiling: 5000 feet AGL
Clouds: broken clouds at 5000 feet AGL
Weather: TSRA  (rain associated with thunderstorm(s))

 AIRPORT MAP

 RUNWAY INFORMATION

 AIRPORT FREQUENCIES
Type APP Name APP Frequency 127.2 MHZ
Type ATIS Name ATIS Frequency 132.8 MHZ
Type GND Name GND Frequency 119 MHZ
Type TWR Name TWR Frequency 128 MHZ

 AIRPORT NEAR NAVIGATION AIDS



2018 Air Astana Virtual Airline